Princeton's Hourly Summary for Monday, March 13, 2017
Hour Temp
(f)
RH
(%)
Solar Rad.
(MJ/m2)
Rainfall
(in)
Wind
(mph)
3/13/2017 12:00 AM 47 79 0 0 0.97
3/13/2017 1:00 AM 47 79 0 0 1.35
3/13/2017 2:00 AM 47 80 0 0 1.65
3/13/2017 3:00 AM 48 79 0 0 2.43
3/13/2017 4:00 AM 48 80 0 0 1.61
3/13/2017 5:00 AM 47 92 0 0 1.14
3/13/2017 6:00 AM 47 96 0 0.01 2.71
3/13/2017 7:00 AM 47 94 0 0 0.91
3/13/2017 8:00 AM 47 95 0 0 0.47
3/13/2017 9:00 AM 47 95 0.06 0 0.65
3/13/2017 10:00 AM 47 93 0.19 0 2.29
3/13/2017 11:00 AM 49 80 0.66 0 3.94
3/13/2017 12:00 PM 51 71 0.82 0 6.12
3/13/2017 1:00 PM 52 61 1.22 0 6.07
3/13/2017 2:00 PM 56 48 2.72 0 6.09
3/13/2017 3:00 PM 59 39 2.92 0 7.33
3/13/2017 4:00 PM 59 36 2.6 0 7.71
3/13/2017 5:00 PM 59 32 2.05 0 7.34
3/13/2017 6:00 PM 58 30 1.26 0 7.61
3/13/2017 7:00 PM 55 27 0.19 0 7.62
3/13/2017 8:00 PM 51 30 0.03 0 3.89
3/13/2017 9:00 PM 49 34 0 0 2.94
3/13/2017 10:00 PM 47 37 0 0 3.23
3/13/2017 11:00 PM 44 43 0 0 3.35
Data Summary 50 63 14.72 0.01 3.73